Log Lane Village, Colorado
Current Conditions -  °F | °C
As of 9:15 AM on Wednesday 28 Jan 2015 (Local Time) from KFMM Reporting Station
Clear Clear  
Wind Chill: 53°   Ceiling: Unl
Heat Index: 53°   Visibility: 10mi
Dew Point: 27°   Wind: 29mph
Humidity: 37%   Direction: 310°NW
Pressure: 30.02"   Gusts: 40mph
Location:  40.27°N, 103.83°W
Report Text: KFMM 281615Z AUTO 31025G35KT 10SM CLR 12/M03 A3002 RMK AO2 T01181026
Loading
Personal Weather Stations






























Interactive Weather Map New forecast layout! Learn more

10-Day Weather Forecast

Advertisements
Track Severe Weather on mobile